Time;durP1;ratioP1;P1;durP2;ratioP2;P2;SDS_P1;SDS_P2;PMS_P1;PMS_P2;Temp;Humidity;BMP_temperature;BMP_pressure;BME280_temperature;BME280_humidity;BME280_pressure;Samples;Min_cycle;Max_cycle;Signal;HPM_P1;HPM_P2
2023/08/14 00:01:04;;;;;;;8.60;3.47;;;19.40;99.40;;;;;;4895739;29;20060;-79
2023/08/14 00:03:29;;;;;;;12.68;3.47;;;19.30;99.30;;;;;;4895265;29;20027;-80
2023/08/14 00:05:55;;;;;;;8.13;2.72;;;19.30;99.40;;;;;;4904646;29;20044;-79
2023/08/14 00:08:23;;;;;;;12.25;3.95;;;19.30;99.60;;;;;;4894094;29;20415;-80
2023/08/14 00:10:49;;;;;;;10.43;3.13;;;19.20;99.20;;;;;;4895173;29;20024;-79
2023/08/14 00:13:21;;;;;;;10.00;4.00;;;19.10;99.70;;;;;;4892486;29;20039;-80
2023/08/14 00:15:50;;;;;;;8.63;3.33;;;19.10;99.40;;;;;;4885552;29;20067;-80
2023/08/14 00:18:16;;;;;;;25.00;3.78;;;19.00;99.60;;;;;;4905963;29;20032;-80
2023/08/14 00:20:43;;;;;;;7.57;3.38;;;19.00;99.90;;;;;;4902742;29;21012;-80
2023/08/14 00:23:08;;;;;;;9.02;3.10;;;19.00;99.90;;;;;;4906256;29;20027;-80
2023/08/14 00:25:34;;;;;;;11.15;3.58;;;19.00;99.80;;;;;;4905312;29;20037;-80
2023/08/14 00:27:59;;;;;;;11.13;3.65;;;19.00;99.90;;;;;;4896688;29;20111;-80
2023/08/14 00:30:27;;;;;;;8.75;3.25;;;19.00;99.60;;;;;;4888804;29;20409;-79
2023/08/14 00:32:53;;;;;;;15.73;3.90;;;19.00;99.90;;;;;;4907388;29;20083;-79
2023/08/14 00:35:18;;;;;;;8.45;2.83;;;19.00;99.90;;;;;;4894624;29;20028;-80
2023/08/14 00:37:48;;;;;;;14.32;3.42;;;19.10;99.90;;;;;;4888432;29;20033;-79
2023/08/14 00:40:16;;;;;;;6.82;3.08;;;19.00;99.50;;;;;;4903708;29;20032;-80
2023/08/14 00:42:45;;;;;;;13.73;3.00;;;18.90;99.60;;;;;;4906904;29;20473;-80
2023/08/14 00:45:10;;;;;;;24.40;3.75;;;18.80;99.70;;;;;;4904398;29;20025;-79
2023/08/14 00:47:37;;;;;;;14.15;3.75;;;18.80;99.90;;;;;;4894294;29;20508;-80
2023/08/14 00:50:06;;;;;;;9.05;4.00;;;18.80;99.90;;;;;;4906634;29;20033;-80
2023/08/14 00:52:37;;;;;;;8.18;3.88;;;18.80;99.90;;;;;;4904493;29;20438;-81
2023/08/14 00:55:07;;;;;;;11.07;4.25;;;18.90;99.90;;;;;;4906862;29;20020;-80
2023/08/14 00:57:35;;;;;;;9.35;3.72;;;18.90;99.90;;;;;;4904827;29;20477;-80
2023/08/14 01:00:05;;;;;;;9.40;3.67;;;18.80;99.90;;;;;;4887165;29;20518;-80
2023/08/14 01:02:31;;;;;;;17.90;4.45;;;18.80;99.90;;;;;;4896018;29;20039;-80
2023/08/14 01:04:56;;;;;;;17.98;3.75;;;18.80;99.90;;;;;;4908448;29;20051;-80
2023/08/14 01:07:24;;;;;;;6.03;3.60;;;18.70;99.90;;;;;;4907066;29;20059;-80
2023/08/14 01:09:50;;;;;;;7.03;3.53;;;18.70;99.90;;;;;;4896222;29;20087;-81
2023/08/14 01:12:20;;;;;;;10.27;3.72;;;18.70;99.90;;;;;;4896219;29;20024;-80
2023/08/14 01:14:52;;;;;;;12.45;3.80;;;18.60;99.90;;;;;;4899782;29;20366;-80
2023/08/14 01:17:19;;;;;;;9.30;4.22;;;18.60;99.90;;;;;;4883491;29;20412;-81
2023/08/14 01:19:51;;;;;;;8.57;3.35;;;18.60;99.90;;;;;;4905361;29;20433;-80
2023/08/14 01:22:35;;;;;;;12.15;4.22;;;18.50;99.90;;;;;;4890079;29;20111;-80
2023/08/14 01:25:23;;;;;;;8.90;4.78;;;18.40;99.90;;;;;;4903372;29;20028;-80
2023/08/14 01:27:49;;;;;;;6.55;4.28;;;18.40;99.90;;;;;;4894969;29;20021;-80
2023/08/14 01:30:15;;;;;;;11.13;4.45;;;18.30;99.90;;;;;;4901596;29;20117;-79
2023/08/14 01:32:40;;;;;;;8.55;4.03;;;18.40;99.90;;;;;;4902996;29;20111;-79
2023/08/14 01:35:07;;;;;;;5.63;3.58;;;18.40;99.90;;;;;;4905147;29;20028;-80
2023/08/14 01:37:39;;;;;;;11.65;3.30;;;18.40;99.90;;;;;;4904477;29;20068;-80
2023/08/14 01:40:13;;;;;;;11.25;3.70;;;18.40;99.90;;;;;;4903449;29;20123;-80
2023/08/14 01:42:45;;;;;;;8.38;4.25;;;18.40;99.90;;;;;;4886784;29;20028;-80
2023/08/14 01:45:17;;;;;;;10.18;4.13;;;18.30;99.90;;;;;;4886000;29;20025;-81
2023/08/14 01:47:46;;;;;;;7.63;3.60;;;18.30;99.90;;;;;;4903676;29;20516;-80
2023/08/14 01:50:14;;;;;;;5.60;4.30;;;18.30;99.90;;;;;;4903926;29;20155;-80
2023/08/14 01:52:39;;;;;;;7.07;3.90;;;18.30;99.90;;;;;;4893840;29;20028;-80
2023/08/14 01:55:05;;;;;;;8.65;4.45;;;18.30;99.90;;;;;;4887650;29;20035;-79
2023/08/14 01:57:32;;;;;;;16.65;4.90;;;18.30;99.90;;;;;;4901247;29;20027;-80
2023/08/14 01:59:59;;;;;;;6.80;4.13;;;18.30;99.90;;;;;;4907530;29;20111;-80
2023/08/14 02:02:24;;;;;;;12.32;4.50;;;18.20;99.90;;;;;;4904156;29;20040;-79
2023/08/14 02:04:50;;;;;;;11.32;4.93;;;18.20;99.90;;;;;;4894958;29;20020;-80
2023/08/14 02:07:16;;;;;;;11.27;4.65;;;18.20;99.90;;;;;;4902792;29;20036;-80
2023/08/14 02:09:44;;;;;;;7.72;4.63;;;18.10;99.90;;;;;;4903500;29;20489;-80
2023/08/14 02:12:10;;;;;;;9.35;4.40;;;18.20;99.90;;;;;;4895121;29;20381;-79
2023/08/14 02:14:35;;;;;;;11.43;4.88;;;18.10;99.90;;;;;;4893241;29;20028;-80
2023/08/14 02:17:01;;;;;;;6.95;4.43;;;18.10;99.90;;;;;;4908388;29;20036;-80
2023/08/14 02:19:26;;;;;;;8.88;4.30;;;18.00;99.90;;;;;;4900343;29;20047;-80
2023/08/14 02:21:52;;;;;;;10.93;4.53;;;18.00;99.90;;;;;;4887350;29;20060;-80
2023/08/14 02:24:18;;;;;;;18.65;4.80;;;18.00;99.90;;;;;;4902726;29;20032;-80
2023/08/14 02:26:43;;;;;;;20.48;4.35;;;18.00;99.90;;;;;;4903346;29;20115;-80
2023/08/14 02:29:11;;;;;;;11.00;4.40;;;18.00;99.90;;;;;;4892262;29;20029;-79
2023/08/14 02:31:39;;;;;;;11.77;4.10;;;18.00;99.90;;;;;;4900752;29;20032;-79
2023/08/14 02:34:06;;;;;;;11.00;4.95;;;18.00;99.90;;;;;;4891900;29;20028;-80
2023/08/14 02:36:31;;;;;;;14.32;4.10;;;18.00;99.90;;;;;;4904713;29;20027;-80
2023/08/14 02:38:57;;;;;;;15.75;5.30;;;17.90;99.90;;;;;;4893654;29;20685;-80
2023/08/14 02:41:22;;;;;;;8.00;4.63;;;17.90;99.90;;;;;;4889014;29;20024;-80
2023/08/14 02:43:48;;;;;;;8.10;4.63;;;17.90;99.90;;;;;;4904135;29;20033;-80
2023/08/14 02:46:14;;;;;;;8.38;4.20;;;17.90;99.90;;;;;;4890232;29;20035;-80
2023/08/14 02:48:40;;;;;;;11.13;4.72;;;17.90;99.90;;;;;;4904547;29;20031;-80
2023/08/14 02:51:05;;;;;;;12.88;5.00;;;17.90;99.90;;;;;;4887913;29;20028;-80
2023/08/14 02:53:31;;;;;;;8.93;4.57;;;17.80;99.90;;;;;;4905289;29;20028;-79
2023/08/14 02:55:57;;;;;;;22.40;4.82;;;17.80;99.90;;;;;;4902154;29;20039;-80
2023/08/14 02:58:23;;;;;;;9.00;4.45;;;17.80;99.90;;;;;;4890336;29;20039;-80
2023/08/14 03:00:48;;;;;;;10.85;4.43;;;17.70;99.90;;;;;;4904804;29;20044;-80
2023/08/14 03:03:15;;;;;;;9.38;4.20;;;17.70;99.90;;;;;;4899689;29;20132;-80
2023/08/14 03:05:44;;;;;;;6.55;4.10;;;17.70;99.90;;;;;;4904731;29;20027;-80
2023/08/14 03:08:10;;;;;;;12.82;4.35;;;17.80;99.90;;;;;;4893683;29;20393;-79
2023/08/14 03:10:35;;;;;;;21.55;4.88;;;17.70;99.90;;;;;;4898104;29;20027;-80
2023/08/14 03:13:01;;;;;;;11.65;5.00;;;17.70;99.90;;;;;;4900773;29;20719;-80
2023/08/14 03:15:27;;;;;;;12.88;4.57;;;17.60;99.90;;;;;;4903575;29;20032;-79
2023/08/14 03:17:52;;;;;;;11.95;4.88;;;17.60;99.90;;;;;;4904280;29;20036;-80
2023/08/14 03:20:18;;;;;;;12.65;5.10;;;17.60;99.90;;;;;;4894786;29;20032;-80
2023/08/14 03:22:44;;;;;;;11.07;4.70;;;17.60;99.90;;;;;;4903097;29;20343;-80
2023/08/14 03:25:09;;;;;;;12.38;4.63;;;17.60;99.90;;;;;;4887299;29;20021;-79
2023/08/14 03:27:35;;;;;;;11.75;3.97;;;17.60;99.90;;;;;;4902318;29;20028;-80
2023/08/14 03:30:00;;;;;;;15.02;4.57;;;17.70;99.90;;;;;;4899092;29;20045;-80
2023/08/14 03:32:26;;;;;;;9.85;4.25;;;17.60;99.90;;;;;;4888860;29;20098;-80
2023/08/14 03:34:51;;;;;;;9.00;4.25;;;17.60;99.90;;;;;;4889047;29;20385;-80
2023/08/14 03:37:17;;;;;;;11.25;4.07;;;17.60;99.90;;;;;;4907809;29;20028;-79
2023/08/14 03:39:43;;;;;;;8.93;4.35;;;17.50;99.90;;;;;;4887835;29;20059;-80
2023/08/14 03:42:09;;;;;;;9.68;4.28;;;17.50;99.90;;;;;;4892408;29;20119;-80
2023/08/14 03:44:37;;;;;;;8.10;4.38;;;17.50;99.90;;;;;;4905616;29;20038;-80
2023/08/14 03:47:03;;;;;;;8.95;4.50;;;17.50;99.90;;;;;;4889381;29;20020;-80
2023/08/14 03:49:28;;;;;;;7.88;4.45;;;17.50;99.90;;;;;;4906933;29;20028;-79
2023/08/14 03:51:54;;;;;;;10.02;3.63;;;17.50;99.90;;;;;;4904582;29;20111;-80
2023/08/14 03:54:19;;;;;;;5.70;3.90;;;17.50;99.90;;;;;;4896177;29;20051;-80
2023/08/14 03:56:45;;;;;;;7.43;4.18;;;17.50;99.90;;;;;;4905455;29;20111;-80
2023/08/14 03:59:12;;;;;;;7.80;3.95;;;17.50;99.90;;;;;;4892511;29;20633;-80
2023/08/14 04:01:40;;;;;;;14.27;4.63;;;17.50;99.90;;;;;;4902329;29;20040;-80
2023/08/14 04:04:05;;;;;;;14.07;4.45;;;17.50;99.90;;;;;;4903199;29;20042;-80
2023/08/14 04:06:33;;;;;;;13.85;3.72;;;17.50;99.90;;;;;;4905033;29;20568;-80
2023/08/14 04:09:01;;;;;;;13.93;4.07;;;17.40;99.90;;;;;;4894069;29;20024;-80
2023/08/14 04:11:26;;;;;;;6.40;3.58;;;17.40;99.90;;;;;;4903849;29;20025;-80
2023/08/14 04:13:52;;;;;;;4.45;3.75;;;17.50;99.90;;;;;;4903028;29;20508;-79
2023/08/14 04:16:20;;;;;;;7.00;3.85;;;17.40;99.90;;;;;;4896083;29;20028;-80
2023/08/14 04:18:46;;;;;;;7.50;3.85;;;17.40;99.90;;;;;;4905561;29;20029;-80
2023/08/14 04:21:14;;;;;;;10.30;4.68;;;17.40;99.90;;;;;;4907378;29;20107;-80
2023/08/14 04:23:40;;;;;;;12.50;4.63;;;17.30;99.90;;;;;;4906847;29;20044;-80
2023/08/14 04:26:05;;;;;;;7.88;4.20;;;17.30;99.90;;;;;;4895961;29;20526;-80
2023/08/14 04:28:31;;;;;;;6.38;4.47;;;17.30;99.90;;;;;;4893456;29;20107;-80
2023/08/14 04:30:57;;;;;;;8.60;4.65;;;17.30;99.90;;;;;;4901646;29;20025;-80
2023/08/14 04:33:22;;;;;;;16.15;4.72;;;17.30;99.90;;;;;;4893441;29;20092;-80
2023/08/14 04:35:48;;;;;;;15.73;4.80;;;17.30;99.90;;;;;;4904049;29;20489;-80
2023/08/14 04:38:13;;;;;;;12.48;4.35;;;17.30;99.90;;;;;;4903324;29;20030;-79
2023/08/14 04:40:39;;;;;;;8.00;4.45;;;17.30;99.90;;;;;;4901087;29;20032;-80
2023/08/14 04:43:05;;;;;;;11.20;4.07;;;17.30;99.90;;;;;;4903472;29;20035;-80
2023/08/14 04:45:30;;;;;;;12.93;4.75;;;17.30;99.90;;;;;;4890895;29;20073;-80
2023/08/14 04:47:58;;;;;;;15.95;4.75;;;17.30;99.90;;;;;;4904875;29;20021;-80
2023/08/14 04:50:24;;;;;;;9.57;3.63;;;17.30;99.90;;;;;;4886030;29;20035;-80
2023/08/14 04:52:49;;;;;;;9.88;4.30;;;17.30;99.90;;;;;;4888644;29;20028;-81
2023/08/14 04:55:15;;;;;;;6.95;4.40;;;17.30;99.90;;;;;;4903098;29;20040;-80
2023/08/14 04:57:41;;;;;;;5.85;4.00;;;17.30;99.90;;;;;;4894909;29;20092;-80
2023/08/14 05:00:07;;;;;;;4.63;3.72;;;17.40;99.90;;;;;;4889471;29;20040;-81
2023/08/14 05:02:33;;;;;;;16.50;4.70;;;17.40;99.90;;;;;;4884910;29;20493;-81
2023/08/14 05:04:58;;;;;;;10.48;4.55;;;17.40;99.90;;;;;;4903035;29;20032;-80
2023/08/14 05:07:24;;;;;;;14.73;4.57;;;17.50;99.90;;;;;;4907130;29;20043;-80
2023/08/14 05:09:50;;;;;;;5.60;4.30;;;17.50;99.90;;;;;;4907765;29;20021;-80
2023/08/14 05:12:15;;;;;;;6.40;4.50;;;17.60;99.90;;;;;;4906024;29;20032;-81
2023/08/14 05:14:41;;;;;;;9.32;5.03;;;17.60;99.90;;;;;;4907265;29;20507;-81
2023/08/14 05:17:06;;;;;;;11.50;5.32;;;17.60;99.90;;;;;;4892986;29;20035;-81
2023/08/14 05:19:32;;;;;;;9.52;4.97;;;17.60;99.90;;;;;;4903832;29;20095;-81
2023/08/14 05:21:58;;;;;;;10.32;4.75;;;17.60;99.90;;;;;;4905567;29;20026;-81
2023/08/14 05:24:23;;;;;;;10.40;4.88;;;17.70;99.90;;;;;;4889829;29;20024;-80
2023/08/14 05:26:49;;;;;;;5.00;4.50;;;17.70;99.90;;;;;;4902082;29;20039;-80
2023/08/14 05:29:15;;;;;;;7.75;5.10;;;17.70;99.90;;;;;;4902162;29;20032;-81
2023/08/14 05:31:40;;;;;;;10.80;4.53;;;17.80;99.90;;;;;;4886863;29;20029;-80
2023/08/14 05:34:08;;;;;;;18.63;5.25;;;17.80;99.90;;;;;;4905120;29;20052;-80
2023/08/14 05:36:34;;;;;;;11.98;4.35;;;17.90;99.90;;;;;;4892590;29;20642;-80
2023/08/14 05:38:59;;;;;;;6.88;5.18;;;18.00;99.90;;;;;;4905736;29;20195;-80
2023/08/14 05:41:25;;;;;;;10.05;4.60;;;18.10;99.90;;;;;;4894750;29;20490;-79
2023/08/14 05:43:51;;;;;;;13.52;5.03;;;18.20;99.90;;;;;;4908556;29;20111;-81
2023/08/14 05:46:16;;;;;;;11.20;5.50;;;18.40;99.90;;;;;;4904687;29;20020;-80
2023/08/14 05:48:42;;;;;;;10.80;5.20;;;18.40;99.90;;;;;;4904263;29;20029;-80
2023/08/14 05:51:08;;;;;;;13.73;5.47;;;18.50;99.90;;;;;;4904383;29;20032;-79
2023/08/14 05:53:33;;;;;;;14.18;5.10;;;18.60;99.90;;;;;;4888191;29;20032;-80
2023/08/14 05:56:01;;;;;;;11.18;5.40;;;18.70;99.90;;;;;;4903465;29;20088;-80
2023/08/14 05:58:27;;;;;;;9.15;5.10;;;18.80;99.90;;;;;;4887422;29;20576;-80
2023/08/14 06:00:54;;;;;;;14.77;6.00;;;18.90;99.90;;;;;;4888764;29;20127;-80
2023/08/14 06:03:25;;;;;;;11.00;5.45;;;19.00;99.90;;;;;;4886587;29;20497;-80
2023/08/14 06:05:50;;;;;;;15.93;6.18;;;19.00;99.90;;;;;;4906635;29;20029;-79
2023/08/14 06:08:16;;;;;;;11.32;5.63;;;19.10;99.90;;;;;;4902817;29;20031;-80
2023/08/14 06:10:41;;;;;;;10.48;5.07;;;19.20;99.90;;;;;;4885070;29;20025;-81
2023/08/14 06:13:08;;;;;;;16.83;5.75;;;19.30;99.90;;;;;;4902266;29;20032;-80
2023/08/14 06:15:34;;;;;;;12.65;5.38;;;19.40;99.90;;;;;;4902111;29;20024;-80
2023/08/14 06:18:00;;;;;;;7.45;5.70;;;19.50;99.90;;;;;;4886267;29;20105;-80
2023/08/14 06:20:26;;;;;;;16.13;5.53;;;19.60;99.90;;;;;;4888418;29;20048;-81
2023/08/14 06:22:52;;;;;;;12.65;4.88;;;19.70;99.90;;;;;;4885268;29;20071;-79
2023/08/14 06:25:18;;;;;;;13.88;5.57;;;19.80;99.90;;;;;;4905169;29;20420;-80
2023/08/14 06:27:43;;;;;;;8.35;5.38;;;19.80;99.90;;;;;;4892699;29;20020;-79
2023/08/14 06:30:10;;;;;;;18.20;5.88;;;19.80;99.90;;;;;;4887130;29;20116;-80
2023/08/14 06:32:37;;;;;;;11.05;5.13;;;19.90;99.90;;;;;;4886051;29;20032;-81
2023/08/14 06:35:04;;;;;;;8.45;5.03;;;19.90;99.90;;;;;;4899537;29;20044;-80
2023/08/14 06:37:30;;;;;;;16.90;6.35;;;20.00;99.90;;;;;;4908533;29;20091;-80
2023/08/14 06:39:56;;;;;;;12.48;5.72;;;20.00;99.90;;;;;;4902001;29;20033;-80
2023/08/14 06:42:21;;;;;;;15.88;5.38;;;19.90;99.90;;;;;;4904480;29;20021;-80
2023/08/14 06:44:47;;;;;;;13.55;4.85;;;19.90;99.90;;;;;;4900650;29;20234;-80
2023/08/14 06:47:12;;;;;;;12.23;6.30;;;19.90;99.90;;;;;;4889993;29;20423;-80
2023/08/14 06:49:38;;;;;;;11.25;5.15;;;20.10;99.90;;;;;;4902370;29;20502;-78
2023/08/14 06:52:04;;;;;;;9.20;5.45;;;20.20;99.90;;;;;;4900096;29;20025;-80
2023/08/14 06:54:30;;;;;;;16.25;6.18;;;20.10;99.90;;;;;;4903874;29;20118;-80
2023/08/14 06:56:56;;;;;;;15.55;6.43;;;20.10;99.80;;;;;;4904364;29;20103;-79
2023/08/14 06:59:21;;;;;;;12.57;5.63;;;20.20;99.90;;;;;;4901301;29;20028;-79
2023/08/14 07:01:49;;;;;;;14.98;6.30;;;20.30;99.70;;;;;;4891788;29;20066;-79
2023/08/14 07:04:17;;;;;;;14.38;5.53;;;20.40;99.30;;;;;;4892337;29;20083;-80
2023/08/14 07:06:42;;;;;;;10.07;5.82;;;20.50;99.50;;;;;;4903029;29;20390;-80
2023/08/14 07:09:08;;;;;;;13.73;6.03;;;20.60;99.40;;;;;;4889655;29;20031;-80
2023/08/14 07:11:39;;;;;;;16.65;5.65;;;20.70;99.20;;;;;;4903541;29;20100;-81
2023/08/14 07:14:06;;;;;;;13.95;6.15;;;20.80;99.00;;;;;;4902497;29;20139;-80
2023/08/14 07:16:32;;;;;;;17.15;6.95;;;20.80;98.90;;;;;;4891561;29;20137;-80
2023/08/14 07:19:04;;;;;;;20.20;7.60;;;20.90;99.10;;;;;;4904863;29;20119;-80
2023/08/14 07:21:29;;;;;;;9.67;5.63;;;21.00;98.50;;;;;;4887982;29;20493;-79
2023/08/14 07:23:55;;;;;;;13.00;5.38;;;21.00;98.70;;;;;;4907232;29;20056;-79
2023/08/14 07:26:20;;;;;;;17.58;6.30;;;21.10;98.70;;;;;;4906300;29;20020;-79
2023/08/14 07:28:46;;;;;;;10.63;5.28;;;21.10;98.80;;;;;;4890741;29;20036;-79
2023/08/14 07:31:11;;;;;;;17.92;6.35;;;21.20;98.50;;;;;;4910032;29;20032;-79
2023/08/14 07:33:37;;;;;;;12.10;5.43;;;21.20;98.70;;;;;;4908473;29;20196;-79
2023/08/14 07:36:03;;;;;;;13.48;5.53;;;21.20;98.60;;;;;;4897105;29;20020;-79
2023/08/14 07:38:29;;;;;;;13.75;5.57;;;21.30;98.70;;;;;;4898107;29;20035;-80
2023/08/14 07:40:56;;;;;;;12.98;6.18;;;21.30;98.60;;;;;;4913458;29;20036;-79
2023/08/14 07:43:22;;;;;;;23.20;7.18;;;21.30;98.40;;;;;;4896045;29;20036;-79
2023/08/14 07:45:48;;;;;;;16.83;6.70;;;21.30;98.00;;;;;;4906170;29;20512;-79
2023/08/14 07:48:14;;;;;;;14.88;6.70;;;21.30;98.20;;;;;;4902268;29;20036;-78
2023/08/14 07:50:40;;;;;;;17.52;5.95;;;21.30;98.20;;;;;;4898324;29;20365;-78
2023/08/14 07:53:06;;;;;;;11.65;6.38;;;21.20;98.50;;;;;;4904621;29;20127;-78
2023/08/14 07:55:31;;;;;;;25.77;8.02;;;21.30;98.50;;;;;;4896535;29;20032;-79
2023/08/14 07:57:58;;;;;;;15.10;6.15;;;21.50;98.50;;;;;;4892242;29;20737;-79
2023/08/14 08:00:24;;;;;;;16.83;6.88;;;21.60;98.40;;;;;;4891741;29;20056;-80
2023/08/14 08:02:50;;;;;;;15.50;6.35;;;21.80;97.90;;;;;;4888260;29;20092;-78
2023/08/14 08:05:16;;;;;;;17.65;6.45;;;21.90;98.00;;;;;;4908237;29;20041;-78
2023/08/14 08:07:41;;;;;;;14.88;6.07;;;22.10;98.10;;;;;;4905817;29;20489;-80
2023/08/14 08:10:09;;;;;;;19.92;6.85;;;22.20;97.40;;;;;;4905490;29;20028;-79
2023/08/14 08:12:35;;;;;;;18.67;6.45;;;22.30;97.70;;;;;;4905719;29;20424;-80
2023/08/14 08:15:01;;;;;;;15.52;6.30;;;22.40;97.70;;;;;;4894510;29;20036;-79
2023/08/14 08:17:26;;;;;;;13.43;5.57;;;22.60;97.40;;;;;;4894667;29;20036;-79
2023/08/14 08:19:54;;;;;;;14.35;5.80;;;22.70;96.80;;;;;;4908056;29;20040;-79
2023/08/14 08:22:20;;;;;;;18.67;5.95;;;22.80;96.50;;;;;;4885644;29;20057;-78
2023/08/14 08:24:47;;;;;;;374.13;243.10;;;23.00;96.30;;;;;;4901872;29;20028;-80
2023/08/14 08:27:12;;;;;;;12.32;4.80;;;23.10;95.50;;;;;;4905611;29;20021;-79
2023/08/14 08:29:40;;;;;;;11.75;4.45;;;23.20;93.80;;;;;;4886667;29;20084;-78
2023/08/14 08:32:08;;;;;;;11.13;4.00;;;23.30;94.10;;;;;;4906845;29;20082;-79
2023/08/14 08:34:34;;;;;;;12.27;3.85;;;23.40;94.00;;;;;;4905274;29;20012;-79
2023/08/14 08:36:59;;;;;;;15.52;4.32;;;23.40;94.20;;;;;;4907246;29;20112;-79
2023/08/14 08:39:25;;;;;;;15.95;3.90;;;23.60;93.50;;;;;;4906478;29;20116;-79
2023/08/14 08:41:52;;;;;;;12.45;3.78;;;23.60;92.70;;;;;;4907803;29;20032;-79
2023/08/14 08:44:34;;;;;;;12.60;3.85;;;23.80;93.20;;;;;;4887280;29;20096;-79
2023/08/14 08:47:07;;;;;;;9.48;3.95;;;23.70;92.80;;;;;;4888871;29;20012;-79
2023/08/14 08:49:34;;;;;;;12.07;3.63;;;23.60;93.10;;;;;;4890637;29;20028;-79
2023/08/14 08:52:05;;;;;;;71.32;39.05;;;23.90;92.30;;;;;;4893405;29;20035;-79
2023/08/14 08:54:31;;;;;;;8.70;4.00;;;24.20;92.40;;;;;;4904753;29;20032;-79
2023/08/14 08:56:58;;;;;;;10.27;4.13;;;24.40;91.20;;;;;;4903422;29;20060;-79
2023/08/14 08:59:25;;;;;;;16.70;4.07;;;24.60;91.70;;;;;;4904507;29;20604;-79
2023/08/14 09:01:51;;;;;;;8.68;3.83;;;24.80;91.30;;;;;;4903131;29;20079;-79
2023/08/14 09:04:19;;;;;;;13.52;4.00;;;24.90;90.70;;;;;;4896568;29;20020;-79
2023/08/14 09:06:45;;;;;;;13.95;3.88;;;25.00;90.00;;;;;;4905768;29;20052;-79
2023/08/14 09:09:14;;;;;;;8.02;3.90;;;25.30;90.70;;;;;;4905472;29;20749;-80
2023/08/14 09:11:45;;;;;;;11.18;3.78;;;25.70;87.90;;;;;;4901653;29;20556;-80
2023/08/14 09:14:10;;;;;;;8.60;3.85;;;26.10;87.80;;;;;;4903871;29;20025;-80
2023/08/14 09:16:36;;;;;;;8.35;3.30;;;26.50;86.70;;;;;;4903569;29;20032;-79
2023/08/14 09:19:02;;;;;;;9.45;3.17;;;26.90;86.80;;;;;;4900865;29;20489;-79
2023/08/14 09:21:28;;;;;;;9.57;3.85;;;27.20;82.40;;;;;;4893817;29;20040;-79
2023/08/14 09:23:57;;;;;;;4.95;2.80;;;27.50;80.30;;;;;;4895460;29;20100;-80
2023/08/14 09:26:23;;;;;;;6.60;3.00;;;27.90;78.60;;;;;;4906801;29;20095;-80
2023/08/14 09:28:49;;;;;;;11.75;4.20;;;28.20;76.10;;;;;;4895006;29;20747;-80
2023/08/14 09:31:14;;;;;;;13.68;3.30;;;28.20;76.20;;;;;;4892631;29;20040;-79
2023/08/14 09:33:42;;;;;;;9.70;3.50;;;28.50;73.80;;;;;;4908109;29;20029;-80
2023/08/14 09:36:09;;;;;;;9.60;3.30;;;28.90;72.80;;;;;;4904366;29;20028;-81
2023/08/14 09:38:38;;;;;;;14.55;5.30;;;29.30;71.20;;;;;;4903484;29;20024;-81
2023/08/14 09:41:07;;;;;;;5.45;3.00;;;29.60;69.90;;;;;;4887198;29;20098;-80
2023/08/14 09:43:33;;;;;;;19.70;3.35;;;30.10;69.80;;;;;;4889505;29;20021;-81
2023/08/14 09:46:01;;;;;;;9.23;3.00;;;30.30;68.30;;;;;;4904433;29;20065;-80
2023/08/14 09:48:43;;;;;;;10.20;3.90;;;30.80;67.30;;;;;;4884722;29;20067;-80
2023/08/14 09:51:14;;;;;;;7.90;3.08;;;31.10;67.40;;;;;;4893842;29;20020;-79
2023/08/14 09:53:56;;;;;;;7.15;3.10;;;31.40;68.10;;;;;;4907730;29;20040;-79
2023/08/14 09:56:22;;;;;;;8.82;3.58;;;31.50;63.00;;;;;;4877241;29;20028;-81
2023/08/14 09:58:48;;;;;;;7.80;3.97;;;31.50;63.10;;;;;;4899899;29;20060;-81
2023/08/14 10:01:18;;;;;;;9.50;3.45;;;31.20;64.40;;;;;;4883995;29;20488;-81
2023/08/14 10:03:46;;;;;;;7.90;3.70;;;31.40;63.90;;;;;;4887037;29;20034;-81
2023/08/14 10:06:13;;;;;;;6.43;3.45;;;31.60;64.20;;;;;;4881240;29;20028;-81
2023/08/14 10:08:42;;;;;;;9.60;3.58;;;31.80;62.30;;;;;;4899845;29;20491;-83
2023/08/14 10:11:13;;;;;;;384.55;209.82;;;32.00;61.00;;;;;;4906060;29;20047;-79
2023/08/14 10:13:51;;;;;;;73.43;35.53;;;32.10;59.90;;;;;;4900928;29;20469;-80
2023/08/14 10:16:23;;;;;;;4.93;3.08;;;32.50;58.40;;;;;;4898770;29;20646;-80
2023/08/14 10:18:53;;;;;;;7.10;3.53;;;32.50;56.40;;;;;;4904625;29;20493;-79
2023/08/14 10:21:22;;;;;;;7.40;3.60;;;32.10;56.30;;;;;;4899639;29;20043;-80
2023/08/14 10:23:48;;;;;;;9.45;3.22;;;31.70;56.50;;;;;;4903566;29;20028;-81
2023/08/14 10:26:14;;;;;;;10.63;3.20;;;31.30;58.60;;;;;;4903817;29;20476;-80
2023/08/14 10:28:42;;;;;;;8.32;3.42;;;31.00;57.80;;;;;;4902487;29;20077;-80
2023/08/14 10:31:10;;;;;;;9.20;3.60;;;31.30;58.90;;;;;;4902374;29;20128;-80
2023/08/14 10:33:36;;;;;;;7.20;3.42;;;31.20;58.00;;;;;;4901160;29;20507;-79
2023/08/14 10:36:02;;;;;;;12.57;5.30;;;31.10;58.60;;;;;;4899943;29;20028;-81
2023/08/14 10:38:42;;;;;;;11.95;3.70;;;30.80;58.80;;;;;;4887823;29;20532;-81
2023/08/14 10:41:11;;;;;;;10.45;3.63;;;29.50;60.50;;;;;;4899921;29;20088;-80
2023/08/14 10:43:37;;;;;;;11.23;4.03;;;29.30;59.70;;;;;;4889182;29;20388;-80
2023/08/14 10:46:15;;;;;;;9.15;3.83;;;29.50;60.00;;;;;;4889981;29;20036;-79
2023/08/14 10:48:48;;;;;;;8.73;3.55;;;29.50;59.70;;;;;;4893845;29;20500;-81
2023/08/14 10:51:16;;;;;;;6.07;2.90;;;29.90;62.90;;;;;;4887119;29;20051;-80
2023/08/14 10:53:42;;;;;;;9.63;3.47;;;30.10;58.40;;;;;;4906093;29;20029;-79
2023/08/14 10:56:10;;;;;;;9.45;2.72;;;29.70;58.40;;;;;;4904408;29;20960;-79
2023/08/14 10:58:39;;;;;;;10.57;3.30;;;29.50;58.40;;;;;;4908656;29;20048;-78
2023/08/14 11:01:10;;;;;;;5.75;3.00;;;29.60;58.90;;;;;;4906592;29;20313;-78
2023/08/14 11:04:03;;;;;;;11.60;4.28;;;30.00;58.20;;;;;;4886110;29;20500;-85
2023/08/14 11:07:01;;;;;;;11.82;3.53;;;30.20;59.90;;;;;;4889078;29;20032;-85
2023/08/14 11:09:31;;;;;;;6.10;2.70;;;30.10;57.60;;;;;;4906143;29;20079;-84
2023/08/14 11:12:05;;;;;;;5.65;2.90;;;29.70;58.10;;;;;;4894928;29;20024;-84
2023/08/14 11:14:33;;;;;;;5.50;3.25;;;29.60;56.90;;;;;;4902983;29;20520;-85
2023/08/14 11:16:59;;;;;;;9.73;3.40;;;30.00;58.50;;;;;;4906026;29;20511;-86
2023/08/14 11:19:25;;;;;;;10.50;3.55;;;30.10;59.40;;;;;;4906015;29;20165;-85
2023/08/14 11:21:51;;;;;;;10.43;3.78;;;30.10;58.40;;;;;;4907039;29;20107;-83
2023/08/14 11:24:17;;;;;;;10.75;3.65;;;30.20;65.30;;;;;;4907792;29;20559;-85
2023/08/14 11:26:42;;;;;;;6.63;3.10;;;30.50;59.40;;;;;;4897867;29;20838;-83
2023/08/14 11:29:08;;;;;;;7.65;3.20;;;30.30;60.90;;;;;;4903243;29;20039;-84
2023/08/14 11:31:35;;;;;;;8.40;2.92;;;30.50;58.90;;;;;;4906877;29;20502;-84
2023/08/14 11:34:00;;;;;;;8.02;2.83;;;30.30;59.50;;;;;;4904126;29;20023;-83
2023/08/14 11:36:26;;;;;;;5.80;3.55;;;29.50;61.50;;;;;;4906534;29;20029;-84
2023/08/14 11:38:52;;;;;;;6.65;3.40;;;29.30;60.60;;;;;;4909037;29;20433;-84
2023/08/14 11:41:18;;;;;;;7.68;3.10;;;29.10;61.90;;;;;;4906656;29;20039;-85
2023/08/14 11:43:45;;;;;;;7.40;2.88;;;29.40;62.80;;;;;;4898360;29;20116;-84
2023/08/14 11:46:11;;;;;;;9.63;3.28;;;29.10;60.70;;;;;;4896009;29;20531;-84
2023/08/14 11:48:40;;;;;;;7.13;2.47;;;29.40;61.10;;;;;;4895398;29;20027;-85
2023/08/14 11:51:06;;;;;;;11.52;2.58;;;29.60;62.60;;;;;;4893292;29;20031;-83
2023/08/14 11:53:33;;;;;;;9.20;2.65;;;29.70;60.40;;;;;;4892630;29;20096;-84
2023/08/14 11:55:59;;;;;;;4.68;2.92;;;29.50;60.50;;;;;;4904304;29;20052;-84
2023/08/14 11:58:24;;;;;;;7.60;2.80;;;29.60;60.60;;;;;;4910479;29;20542;-84
2023/08/14 12:00:52;;;;;;;7.43;2.92;;;29.80;60.00;;;;;;4896765;29;20044;-83
2023/08/14 12:03:19;;;;;;;6.75;2.53;;;29.80;62.30;;;;;;4907665;29;20043;-84
2023/08/14 12:05:59;;;;;;;7.75;2.67;;;30.00;62.20;;;;;;4895399;29;20023;-84
2023/08/14 12:08:27;;;;;;;8.43;3.25;;;29.80;62.00;;;;;;4901964;29;20038;-85
2023/08/14 12:10:52;;;;;;;12.18;3.83;;;29.90;60.90;;;;;;4908316;29;20024;-84
2023/08/14 12:13:21;;;;;;;6.35;3.00;;;29.80;60.60;;;;;;4907075;29;20046;-80
2023/08/14 12:15:47;;;;;;;8.05;3.35;;;30.00;60.10;;;;;;4907719;29;20032;-83
2023/08/14 12:18:19;;;;;;;8.15;2.80;;;30.30;59.80;;;;;;4894764;29;20076;-84
2023/08/14 12:20:51;;;;;;;9.18;2.70;;;29.80;58.70;;;;;;4888906;29;20032;-84
2023/08/14 12:23:20;;;;;;;7.10;2.63;;;29.70;60.90;;;;;;4913758;29;20040;-84
2023/08/14 12:25:46;;;;;;;6.03;2.72;;;29.90;59.60;;;;;;4916582;29;20028;-84
2023/08/14 12:28:12;;;;;;;4.78;2.33;;;29.80;59.70;;;;;;4912496;29;20079;-85
2023/08/14 12:30:38;;;;;;;7.07;3.25;;;30.10;60.80;;;;;;4905481;29;20148;-84
2023/08/14 12:33:06;;;;;;;11.68;3.25;;;30.30;58.90;;;;;;4909216;29;20012;-84
2023/08/14 12:35:35;;;;;;;6.75;2.50;;;30.30;58.20;;;;;;4893297;29;20020;-84
2023/08/14 12:38:00;;;;;;;6.22;2.78;;;30.20;59.50;;;;;;4912257;29;20028;-84
2023/08/14 12:40:27;;;;;;;11.25;3.22;;;30.10;58.20;;;;;;4903992;29;20037;-84